createdAt,value
2018-09-12T00:00:31.120Z,7.20
2018-09-12T00:02:59.960Z,6.23
2018-09-12T00:05:28.808Z,7.43
2018-09-12T00:07:57.639Z,9.00
2018-09-12T00:10:26.497Z,6.40
2018-09-12T00:12:55.464Z,8.20
2018-09-12T00:15:24.281Z,7.20
2018-09-12T00:17:53.106Z,7.23
2018-09-12T00:20:21.964Z,6.90
2018-09-12T00:22:50.937Z,6.87
2018-09-12T00:25:19.786Z,6.70
2018-09-12T00:27:48.796Z,7.33
2018-09-12T00:30:17.732Z,6.77
2018-09-12T00:32:46.583Z,8.87
2018-09-12T00:35:15.391Z,7.47
2018-09-12T00:37:44.239Z,6.50
2018-09-12T00:40:13.071Z,7.90
2018-09-12T00:42:41.927Z,7.17
2018-09-12T00:45:10.784Z,7.27
2018-09-12T00:47:39.625Z,6.50
2018-09-12T00:50:08.460Z,7.13
2018-09-12T00:52:37.305Z,6.90
2018-09-12T00:57:45.326Z,7.13
2018-09-12T01:00:15.974Z,7.60
2018-09-12T01:02:45.435Z,6.47
2018-09-12T01:05:14.315Z,7.03
2018-09-12T01:07:43.252Z,7.60
2018-09-12T01:10:12.128Z,7.00
2018-09-12T01:12:41.063Z,7.63
2018-09-12T01:15:09.968Z,7.50
2018-09-12T01:17:38.828Z,6.33
2018-09-12T01:20:07.717Z,6.80
2018-09-12T01:22:36.592Z,6.90
2018-09-12T01:25:05.439Z,8.00
2018-09-12T01:27:34.275Z,6.27
2018-09-12T01:30:06.439Z,7.90
2018-09-12T01:32:35.323Z,7.53
2018-09-12T01:35:04.288Z,7.53
2018-09-12T01:37:33.127Z,6.60
2018-09-12T01:40:01.984Z,6.20
2018-09-12T01:42:30.838Z,7.40
2018-09-12T01:44:59.704Z,5.93
2018-09-12T01:47:28.520Z,7.30
2018-09-12T01:49:57.365Z,6.67
2018-09-12T01:52:26.227Z,7.40
2018-09-12T01:54:55.074Z,6.47
2018-09-12T01:57:23.930Z,7.60
2018-09-12T01:59:52.768Z,7.30
2018-09-12T02:02:21.647Z,6.57
2018-09-12T02:04:50.559Z,6.23
2018-09-12T02:07:19.371Z,6.87
2018-09-12T02:09:48.342Z,6.43
2018-09-12T02:12:17.184Z,7.83
2018-09-12T02:14:46.030Z,6.73
2018-09-12T02:17:14.900Z,10.10
2018-09-12T02:19:43.802Z,7.83
2018-09-12T02:22:12.657Z,7.23
2018-09-12T02:24:41.558Z,7.07
2018-09-12T02:27:10.408Z,6.47
2018-09-12T02:29:39.316Z,6.13
2018-09-12T02:32:08.138Z,6.53
2018-09-12T02:34:36.995Z,6.57
2018-09-12T02:37:05.867Z,6.60
2018-09-12T02:39:34.711Z,6.60
2018-09-12T02:42:03.576Z,6.97
2018-09-12T02:44:32.468Z,6.13
2018-09-12T02:47:01.307Z,9.90
2018-09-12T02:49:30.155Z,6.87
2018-09-12T02:51:58.972Z,7.10
2018-09-12T02:54:27.781Z,6.73
2018-09-12T02:56:56.600Z,9.80
2018-09-12T02:59:30.524Z,7.83
2018-09-12T03:01:59.330Z,6.40
2018-09-12T03:04:46.235Z,8.03
2018-09-12T03:07:15.016Z,7.43
2018-09-12T03:09:43.923Z,5.80
2018-09-12T03:12:13.004Z,6.63
2018-09-12T03:14:41.836Z,8.93
2018-09-12T03:17:11.298Z,6.00
2018-09-12T03:19:40.136Z,7.57
2018-09-12T03:22:09.020Z,8.17
2018-09-12T03:24:37.979Z,10.57
2018-09-12T03:27:06.800Z,8.07
2018-09-12T03:29:35.633Z,7.30
2018-09-12T03:32:04.479Z,7.77
2018-09-12T03:34:33.475Z,7.80
2018-09-12T03:37:02.320Z,9.50
2018-09-12T03:39:31.125Z,7.30
2018-09-12T03:41:59.993Z,7.37
2018-09-12T03:44:28.830Z,8.93
2018-09-12T03:46:57.693Z,7.50
2018-09-12T03:49:26.543Z,9.43
2018-09-12T03:51:55.580Z,8.23
2018-09-12T03:54:24.438Z,8.17
2018-09-12T03:56:53.296Z,8.37
2018-09-12T03:59:28.127Z,8.30
2018-09-12T04:01:56.967Z,8.57
2018-09-12T04:04:25.900Z,8.80
2018-09-12T04:06:54.752Z,7.63
2018-09-12T04:09:23.597Z,9.23
2018-09-12T04:11:52.448Z,9.10
2018-09-12T04:14:21.252Z,7.93
2018-09-12T04:16:50.233Z,7.17
2018-09-12T04:19:19.074Z,10.00
2018-09-12T04:21:47.936Z,8.90
2018-09-12T04:24:16.859Z,8.60
2018-09-12T04:26:45.673Z,9.43
2018-09-12T04:29:14.556Z,9.03
2018-09-12T04:31:43.400Z,8.50
2018-09-12T04:34:12.240Z,9.67
2018-09-12T04:36:41.094Z,7.90
2018-09-12T04:39:11.132Z,12.50
2018-09-12T04:41:40.014Z,8.90
2018-09-12T04:44:08.895Z,8.80
2018-09-12T04:46:37.816Z,7.90
2018-09-12T04:49:07.183Z,11.57
2018-09-12T04:51:36.032Z,10.70
2018-09-12T04:54:04.903Z,9.70
2018-09-12T04:56:33.738Z,8.67
2018-09-12T04:59:02.600Z,7.40
2018-09-12T05:01:31.437Z,8.37
2018-09-12T05:04:00.293Z,8.17
2018-09-12T05:06:29.241Z,8.43
2018-09-12T05:08:58.097Z,8.20
2018-09-12T05:11:26.968Z,8.57
2018-09-12T05:13:56.103Z,8.80
2018-09-12T05:16:24.965Z,7.43
2018-09-12T05:18:53.813Z,8.07
2018-09-12T05:21:22.712Z,11.93
2018-09-12T05:23:51.561Z,12.03
2018-09-12T05:26:20.422Z,9.33
2018-09-12T05:28:49.248Z,7.80
2018-09-12T05:31:18.130Z,8.40
2018-09-12T05:33:46.992Z,8.40
2018-09-12T05:36:15.875Z,8.40
2018-09-12T05:38:44.762Z,8.57
2018-09-12T05:41:13.600Z,7.60
2018-09-12T05:43:42.575Z,11.63
2018-09-12T05:46:11.407Z,9.37
2018-09-12T05:48:40.310Z,7.40
2018-09-12T05:51:09.191Z,8.53
2018-09-12T05:53:38.040Z,9.80
2018-09-12T05:56:06.995Z,8.97
2018-09-12T05:58:35.853Z,9.87
2018-09-12T06:01:04.804Z,8.83
2018-09-12T06:03:33.757Z,9.87
2018-09-12T06:06:02.648Z,10.17
2018-09-12T06:08:31.564Z,10.83
2018-09-12T06:11:00.401Z,9.67
2018-09-12T06:13:29.246Z,11.50
2018-09-12T06:15:58.082Z,10.13
2018-09-12T06:18:26.927Z,9.00
2018-09-12T06:20:55.771Z,12.33
2018-09-12T06:23:24.632Z,9.10
2018-09-12T06:25:53.476Z,11.97
2018-09-12T06:28:22.285Z,9.30
2018-09-12T06:30:51.220Z,9.17
2018-09-12T06:33:20.031Z,9.43
2018-09-12T06:35:48.911Z,11.37
2018-09-12T06:38:17.822Z,8.07
2018-09-12T06:40:46.635Z,10.23
2018-09-12T06:43:15.484Z,9.63
2018-09-12T06:45:44.328Z,8.40
2018-09-12T06:48:13.161Z,9.27
2018-09-12T06:50:42.001Z,8.90
2018-09-12T06:53:10.846Z,10.60
2018-09-12T06:55:39.688Z,10.17
2018-09-12T06:58:08.539Z,9.00
2018-09-12T07:00:37.428Z,8.70
2018-09-12T07:03:06.358Z,9.00
2018-09-12T07:05:35.220Z,8.77
2018-09-12T07:08:04.080Z,9.20
2018-09-12T07:10:32.941Z,9.47
2018-09-12T07:13:01.817Z,9.30
2018-09-12T07:15:30.669Z,9.83
2018-09-12T07:17:59.504Z,12.40
2018-09-12T07:20:28.371Z,10.37
2018-09-12T07:22:57.247Z,9.10
2018-09-12T07:25:26.101Z,8.67
2018-09-12T07:27:54.983Z,9.53
2018-09-12T07:30:23.921Z,8.60
2018-09-12T07:32:52.747Z,9.20
2018-09-12T07:35:21.599Z,9.17
2018-09-12T07:37:50.478Z,8.43
2018-09-12T07:40:19.528Z,11.60
2018-09-12T07:42:48.437Z,8.00
2018-09-12T07:45:17.267Z,10.57
2018-09-12T07:47:46.094Z,11.27
2018-09-12T07:50:14.957Z,10.77
2018-09-12T07:52:43.784Z,8.97
2018-09-12T07:55:12.681Z,9.37
2018-09-12T07:57:41.519Z,8.87
2018-09-12T08:00:10.815Z,9.17
2018-09-12T08:02:39.620Z,8.50
2018-09-12T08:05:09.036Z,8.40
2018-09-12T08:07:37.951Z,8.23
2018-09-12T08:10:07.093Z,10.13
2018-09-12T08:12:35.939Z,8.03
2018-09-12T08:15:04.974Z,9.60
2018-09-12T08:17:33.815Z,9.97
2018-09-12T08:20:02.783Z,9.93
2018-09-12T08:22:31.648Z,8.77
2018-09-12T08:25:00.495Z,8.60
2018-09-12T08:27:29.466Z,7.10
2018-09-12T08:29:58.349Z,10.33
2018-09-12T08:32:39.254Z,7.90
2018-09-12T08:35:08.293Z,6.80
2018-09-12T08:37:37.165Z,9.23
2018-09-12T08:40:06.112Z,8.37
2018-09-12T08:42:35.027Z,9.13
2018-09-12T08:45:04.036Z,7.67
2018-09-12T08:47:32.944Z,7.83
2018-09-12T08:50:01.777Z,7.50
2018-09-12T08:52:30.615Z,8.67
2018-09-12T08:54:59.468Z,6.50
2018-09-12T08:57:28.343Z,9.67
2018-09-12T08:59:57.172Z,7.87
2018-09-12T09:02:26.042Z,6.70
2018-09-12T09:04:55.112Z,8.07
2018-09-12T09:07:23.981Z,7.37
2018-09-12T09:09:52.819Z,7.37
2018-09-12T09:12:21.663Z,7.67
2018-09-12T09:14:50.490Z,7.70
2018-09-12T09:17:19.385Z,7.27
2018-09-12T09:19:48.210Z,6.13
2018-09-12T09:22:17.045Z,6.90
2018-09-12T09:24:45.888Z,9.07
2018-09-12T09:27:14.747Z,6.70
2018-09-12T09:29:43.582Z,6.83
2018-09-12T09:32:12.432Z,6.10
2018-09-12T09:34:41.288Z,6.07
2018-09-12T09:37:10.111Z,6.83
2018-09-12T09:39:38.952Z,8.97
2018-09-12T09:42:07.784Z,7.70
2018-09-12T09:44:36.603Z,8.30
2018-09-12T09:47:05.497Z,6.50
2018-09-12T09:49:34.323Z,6.37
2018-09-12T09:52:03.183Z,7.60
2018-09-12T09:54:32.085Z,7.03
2018-09-12T09:57:00.901Z,7.50
2018-09-12T09:59:29.970Z,7.30
2018-09-12T10:02:04.489Z,7.23
2018-09-12T10:04:39.099Z,7.37
2018-09-12T10:07:13.579Z,7.03
2018-09-12T10:09:42.453Z,7.17
2018-09-12T10:12:11.281Z,7.63
2018-09-12T10:14:40.109Z,6.07
2018-09-12T10:17:08.934Z,7.17
2018-09-12T10:19:37.762Z,7.33
2018-09-12T10:22:06.716Z,6.63
2018-09-12T10:24:35.550Z,6.80
2018-09-12T10:27:04.427Z,6.40
2018-09-12T10:29:33.283Z,5.83
2018-09-12T10:32:02.112Z,6.90
2018-09-12T10:34:30.947Z,6.60
2018-09-12T10:36:59.794Z,5.90
2018-09-12T10:39:28.616Z,7.10
2018-09-12T10:41:57.608Z,6.97
2018-09-12T10:44:26.431Z,7.00
2018-09-12T10:46:55.290Z,7.70
2018-09-12T10:49:24.124Z,6.77
2018-09-12T10:51:53.023Z,7.40
2018-09-12T10:54:21.864Z,7.20
2018-09-12T10:56:50.718Z,7.27
2018-09-12T10:59:27.404Z,8.33
2018-09-12T11:01:56.239Z,6.10
2018-09-12T11:04:25.131Z,6.20
2018-09-12T11:06:54.018Z,5.87
2018-09-12T11:09:22.847Z,7.30
2018-09-12T11:11:51.727Z,6.10
2018-09-12T11:14:20.549Z,6.20
2018-09-12T11:16:49.495Z,6.77
2018-09-12T11:19:18.389Z,7.00
2018-09-12T11:21:47.237Z,6.97
2018-09-12T11:24:16.076Z,7.13
2018-09-12T11:26:44.917Z,7.97
2018-09-12T11:29:13.778Z,7.30
2018-09-12T11:31:42.620Z,7.20
2018-09-12T11:34:11.485Z,7.00
2018-09-12T11:36:40.271Z,7.50
2018-09-12T11:39:10.724Z,6.80
2018-09-12T11:41:39.695Z,7.47
2018-09-12T11:44:08.609Z,6.60
2018-09-12T11:46:37.468Z,6.97
2018-09-12T11:49:06.407Z,7.57
2018-09-12T11:51:35.249Z,7.40
2018-09-12T11:54:04.152Z,7.37
2018-09-12T11:56:33.039Z,8.23
2018-09-12T11:59:01.929Z,7.70
2018-09-12T12:01:30.817Z,6.50
2018-09-12T12:03:59.675Z,7.17
2018-09-12T12:06:28.535Z,7.70
2018-09-12T12:08:57.354Z,7.20
2018-09-12T12:11:26.224Z,6.93
2018-09-12T12:13:55.054Z,9.03
2018-09-12T12:16:23.887Z,7.07
2018-09-12T12:18:52.760Z,8.03
2018-09-12T12:21:21.599Z,7.77
2018-09-12T12:23:50.447Z,7.57
2018-09-12T12:26:19.290Z,7.13
2018-09-12T12:28:55.154Z,7.63
2018-09-12T12:31:23.995Z,8.50
2018-09-12T12:33:52.828Z,7.77
2018-09-12T12:36:21.687Z,7.83
2018-09-12T12:38:50.532Z,7.87
2018-09-12T12:41:19.407Z,8.30
2018-09-12T12:43:48.251Z,8.10
2018-09-12T12:46:17.076Z,7.40
2018-09-12T12:48:45.972Z,7.93
2018-09-12T12:51:14.860Z,8.40
2018-09-12T12:53:43.683Z,7.60
2018-09-12T12:56:12.531Z,8.23
2018-09-12T12:58:41.396Z,7.83
2018-09-12T13:01:10.286Z,8.47
2018-09-12T13:03:39.123Z,8.60
2018-09-12T13:06:07.961Z,7.40
2018-09-12T13:08:36.803Z,7.97
2018-09-12T13:11:06.111Z,7.80
2018-09-12T13:13:34.950Z,8.73
2018-09-12T13:16:03.839Z,8.83
2018-09-12T13:18:32.704Z,7.97
2018-09-12T13:21:01.688Z,7.43
2018-09-12T13:23:30.519Z,8.40
2018-09-12T13:25:59.395Z,8.40
2018-09-12T13:28:28.909Z,7.77
2018-09-12T13:30:57.839Z,7.77
2018-09-12T13:33:26.715Z,8.37
2018-09-12T13:35:55.540Z,7.60
2018-09-12T13:38:24.367Z,8.37
2018-09-12T13:40:53.225Z,8.67
2018-09-12T13:43:22.052Z,8.20
2018-09-12T13:45:50.892Z,7.93
2018-09-12T13:48:19.768Z,7.97
2018-09-12T13:50:48.600Z,6.50
2018-09-12T13:53:17.449Z,7.83
2018-09-12T13:55:46.328Z,7.97
2018-09-12T13:58:15.191Z,7.50
2018-09-12T14:00:46.815Z,8.10
2018-09-12T14:03:15.814Z,8.00
2018-09-12T14:05:44.632Z,8.50
2018-09-12T14:08:13.472Z,10.53
2018-09-12T14:10:42.316Z,8.83
2018-09-12T14:13:11.147Z,7.57
2018-09-12T14:15:40.008Z,7.03
2018-09-12T14:18:08.859Z,7.50
2018-09-12T14:20:37.708Z,7.73
2018-09-12T14:23:06.555Z,8.47
2018-09-12T14:25:35.460Z,8.77
2018-09-12T14:28:04.431Z,9.20
2018-09-12T14:30:33.231Z,8.47
2018-09-12T14:33:02.080Z,9.33
2018-09-12T14:35:30.935Z,7.80
2018-09-12T14:37:59.762Z,7.27
2018-09-12T14:40:28.677Z,7.60
2018-09-12T14:42:57.740Z,7.73
2018-09-12T14:45:26.636Z,7.20
2018-09-12T14:47:55.493Z,7.60
2018-09-12T14:50:24.314Z,7.50
2018-09-12T14:52:53.150Z,7.87
2018-09-12T14:55:21.999Z,7.17
2018-09-12T14:57:50.864Z,7.20
2018-09-12T15:00:28.842Z,7.27
2018-09-12T15:02:59.615Z,7.77
2018-09-12T15:05:28.459Z,9.10
2018-09-12T15:07:58.350Z,8.57
2018-09-12T15:10:28.174Z,8.37
2018-09-12T15:12:56.983Z,9.73
2018-09-12T15:15:25.831Z,8.77
2018-09-12T15:17:54.683Z,9.03
2018-09-12T15:20:23.586Z,8.40
2018-09-12T15:22:52.455Z,7.97
2018-09-12T15:25:21.295Z,9.10
2018-09-12T15:27:50.258Z,8.17
2018-09-12T15:30:19.105Z,7.70
2018-09-12T15:32:47.907Z,8.00
2018-09-12T15:35:16.772Z,8.37
2018-09-12T15:37:45.601Z,7.97
2018-09-12T15:40:14.449Z,7.80
2018-09-12T15:42:43.255Z,7.77
2018-09-12T15:45:12.136Z,8.07
2018-09-12T15:47:40.977Z,7.60
2018-09-12T15:50:09.832Z,7.53
2018-09-12T15:52:38.710Z,8.30
2018-09-12T15:55:07.580Z,10.77
2018-09-12T15:57:36.495Z,10.90
2018-09-12T16:00:06.040Z,9.30
2018-09-12T16:02:35.203Z,8.73
2018-09-12T16:05:04.799Z,8.13
2018-09-12T16:07:33.644Z,7.00
2018-09-12T16:10:02.572Z,9.07
2018-09-12T16:12:31.415Z,7.37
2018-09-12T16:15:00.244Z,6.90
2018-09-12T16:17:29.076Z,7.73
2018-09-12T16:19:57.970Z,7.87
2018-09-12T16:22:26.813Z,9.30
2018-09-12T16:24:55.673Z,8.10
2018-09-12T16:27:24.627Z,8.50
2018-09-12T16:29:53.447Z,8.83
2018-09-12T16:32:22.309Z,8.80
2018-09-12T16:34:51.163Z,8.23
2018-09-12T16:37:20.027Z,8.43
2018-09-12T16:39:48.880Z,7.80
2018-09-12T16:42:17.733Z,8.00
2018-09-12T16:44:46.569Z,8.50
2018-09-12T16:47:15.429Z,8.70
2018-09-12T16:49:44.272Z,8.63
2018-09-12T16:52:13.195Z,8.87
2018-09-12T16:54:42.040Z,9.40
2018-09-12T16:57:10.954Z,10.57
2018-09-12T16:59:39.785Z,9.93
2018-09-12T17:02:08.671Z,10.80
2018-09-12T17:04:37.508Z,11.47
2018-09-12T17:07:06.855Z,9.50
2018-09-12T17:09:35.796Z,7.90
2018-09-12T17:12:16.551Z,8.50
2018-09-12T17:14:45.435Z,10.00
2018-09-12T17:17:14.444Z,8.30
2018-09-12T17:19:43.277Z,9.20
2018-09-12T17:22:12.175Z,8.10
2018-09-12T17:24:41.067Z,8.03
2018-09-12T17:27:09.936Z,9.83
2018-09-12T17:29:38.897Z,8.50
2018-09-12T17:32:07.780Z,12.23
2018-09-12T17:34:36.674Z,8.80
2018-09-12T17:37:05.696Z,9.40
2018-09-12T17:39:34.573Z,9.50
2018-09-12T17:42:03.456Z,10.60
2018-09-12T17:44:32.367Z,8.63
2018-09-12T17:47:01.253Z,9.90
2018-09-12T17:49:30.994Z,9.10
2018-09-12T17:51:59.992Z,9.33
2018-09-12T17:54:28.962Z,9.43
2018-09-12T17:56:58.411Z,8.90
2018-09-12T17:59:28.912Z,9.63
2018-09-12T18:01:57.817Z,8.77
2018-09-12T18:04:26.711Z,9.10
2018-09-12T18:06:56.434Z,9.67
2018-09-12T18:09:25.899Z,9.23
2018-09-12T18:11:54.860Z,8.77
2018-09-12T18:14:23.903Z,10.90
2018-09-12T18:16:52.997Z,8.43
2018-09-12T18:19:21.913Z,11.83
2018-09-12T18:21:50.814Z,11.23
2018-09-12T18:24:19.725Z,10.07
2018-09-12T18:26:48.754Z,11.10
2018-09-12T18:29:18.496Z,10.33
2018-09-12T18:31:47.420Z,9.87
2018-09-12T18:34:16.331Z,9.43
2018-09-12T18:36:45.444Z,10.23
2018-09-12T18:39:14.360Z,9.50
2018-09-12T18:41:43.360Z,13.77
2018-09-12T18:44:12.281Z,11.43
2018-09-12T18:46:41.137Z,10.07
2018-09-12T18:49:11.060Z,10.37
2018-09-12T18:51:39.927Z,9.00
2018-09-12T18:54:08.808Z,10.70
2018-09-12T18:56:37.672Z,10.57
2018-09-12T18:59:06.938Z,10.00
2018-09-12T19:01:35.948Z,11.47
2018-09-12T19:04:04.795Z,10.20
2018-09-12T19:06:33.805Z,10.40
2018-09-12T19:09:03.403Z,10.07
2018-09-12T19:11:32.255Z,10.67
2018-09-12T19:14:01.106Z,11.77
2018-09-12T19:16:29.966Z,9.93
2018-09-12T19:18:58.820Z,10.00
2018-09-12T19:21:28.053Z,10.57
2018-09-12T19:23:58.263Z,10.60
2018-09-12T19:26:27.121Z,10.27
2018-09-12T19:28:55.947Z,11.17
2018-09-12T19:31:24.811Z,10.80
2018-09-12T19:33:53.755Z,11.00
2018-09-12T19:36:22.725Z,10.67
2018-09-12T19:38:51.573Z,11.40
2018-09-12T19:41:20.432Z,11.70
2018-09-12T19:43:49.347Z,10.60
2018-09-12T19:46:18.317Z,10.50
2018-09-12T19:48:47.275Z,11.53
2018-09-12T19:51:16.849Z,10.33
2018-09-12T19:53:45.934Z,10.87
2018-09-12T19:56:15.243Z,9.60
2018-09-12T19:58:44.660Z,11.00
2018-09-12T20:01:13.967Z,10.53
2018-09-12T20:03:42.922Z,10.37
2018-09-12T20:06:11.815Z,9.77
2018-09-12T20:08:40.848Z,10.10
2018-09-12T20:11:09.720Z,10.77
2018-09-12T20:13:38.731Z,9.60
2018-09-12T20:16:07.720Z,10.37
2018-09-12T20:18:36.563Z,9.43
2018-09-12T20:21:05.698Z,10.27
2018-09-12T20:23:34.726Z,11.07
2018-09-12T20:26:03.551Z,8.73
2018-09-12T20:28:41.603Z,10.30
2018-09-12T20:31:11.297Z,9.03
2018-09-12T20:33:40.308Z,9.57
2018-09-12T20:36:09.168Z,8.70
2018-09-12T20:38:38.004Z,10.00
2018-09-12T20:41:06.887Z,10.67
2018-09-12T20:43:35.686Z,9.40
2018-09-12T20:46:04.652Z,10.20
2018-09-12T20:48:33.527Z,10.87
2018-09-12T20:51:02.419Z,10.23
2018-09-12T20:53:31.267Z,9.50
2018-09-12T20:56:00.108Z,10.50
2018-09-12T20:58:28.960Z,10.60
2018-09-12T21:00:57.859Z,11.33
2018-09-12T21:03:27.579Z,9.23
2018-09-12T21:05:56.412Z,10.20
2018-09-12T21:08:25.263Z,10.80
2018-09-12T21:10:54.162Z,10.07
2018-09-12T21:13:23.026Z,10.43
2018-09-12T21:15:52.003Z,10.67
2018-09-12T21:18:21.068Z,10.40
2018-09-12T21:20:49.889Z,10.00
2018-09-12T21:23:18.786Z,10.33
2018-09-12T21:25:47.621Z,10.47
2018-09-12T21:28:16.456Z,10.70
2018-09-12T21:30:45.390Z,10.13
2018-09-12T21:33:14.306Z,10.40
2018-09-12T21:35:43.224Z,10.60
2018-09-12T21:38:12.122Z,10.90
2018-09-12T21:40:41.060Z,11.53
2018-09-12T21:43:09.919Z,10.93
2018-09-12T21:45:38.815Z,10.43
2018-09-12T21:48:07.743Z,9.73
2018-09-12T21:50:36.579Z,9.07
2018-09-12T21:53:05.436Z,11.57
2018-09-12T21:55:34.367Z,9.57
2018-09-12T21:58:03.191Z,10.83
2018-09-12T22:00:32.161Z,10.83
2018-09-12T22:03:01.016Z,9.33
2018-09-12T22:05:29.868Z,10.53
2018-09-12T22:07:58.819Z,9.90
2018-09-12T22:10:27.632Z,9.83
2018-09-12T22:12:56.484Z,11.00
2018-09-12T22:15:25.321Z,10.17
2018-09-12T22:17:54.271Z,9.77
2018-09-12T22:20:23.116Z,10.97
2018-09-12T22:22:51.948Z,10.53
2018-09-12T22:25:20.823Z,9.67
2018-09-12T22:27:49.682Z,9.57
2018-09-12T22:30:18.582Z,10.03
2018-09-12T22:32:47.403Z,9.87
2018-09-12T22:35:16.356Z,10.27
2018-09-12T22:37:45.185Z,10.97
2018-09-12T22:40:14.015Z,11.80
2018-09-12T22:42:42.855Z,11.63
2018-09-12T22:45:11.694Z,9.60
2018-09-12T22:47:40.644Z,11.00
2018-09-12T22:50:09.507Z,10.10
2018-09-12T22:52:38.338Z,10.57
2018-09-12T22:55:07.154Z,10.83
2018-09-12T22:57:35.978Z,10.13
2018-09-12T23:00:06.048Z,11.13
2018-09-12T23:02:34.876Z,9.90
2018-09-12T23:05:10.426Z,11.83
2018-09-12T23:07:39.260Z,10.20
2018-09-12T23:10:08.108Z,10.73
2018-09-12T23:12:36.932Z,10.10
2018-09-12T23:15:06.282Z,10.67
2018-09-12T23:17:35.123Z,10.00
2018-09-12T23:20:04.114Z,9.80
2018-09-12T23:22:32.953Z,11.07
2018-09-12T23:25:01.756Z,11.07
2018-09-12T23:27:30.819Z,10.13
2018-09-12T23:29:59.736Z,9.90
2018-09-12T23:32:28.543Z,10.30
2018-09-12T23:34:57.360Z,9.50
2018-09-12T23:37:26.499Z,11.40
2018-09-12T23:39:55.335Z,10.53
2018-09-12T23:42:24.212Z,10.27
2018-09-12T23:44:53.091Z,10.70
2018-09-12T23:47:21.915Z,10.03
2018-09-12T23:49:50.844Z,9.90
2018-09-12T23:52:19.764Z,10.40
2018-09-12T23:54:48.611Z,10.40
2018-09-12T23:57:17.449Z,10.27
2018-09-12T23:59:46.294Z,9.97
